createdAt,value
2023-03-11T00:00:18.710Z,2.40
2023-03-11T00:02:50.635Z,2.44
2023-03-11T00:05:21.442Z,2.41
2023-03-11T00:07:49.171Z,2.40
2023-03-11T00:10:18.112Z,2.36
2023-03-11T00:12:45.771Z,2.34
2023-03-11T00:15:14.093Z,2.22
2023-03-11T00:17:42.313Z,2.12
2023-03-11T00:20:19.673Z,2.06
2023-03-11T00:22:50.924Z,1.98
2023-03-11T00:25:20.136Z,1.93
2023-03-11T00:27:47.882Z,1.89
2023-03-11T00:30:17.219Z,1.84
2023-03-11T00:32:45.711Z,1.75
2023-03-11T00:35:15.311Z,1.78
2023-03-11T00:37:43.634Z,1.76
2023-03-11T00:40:16.976Z,1.70
2023-03-11T00:42:44.841Z,1.70
2023-03-11T00:45:16.009Z,1.66
2023-03-11T00:47:43.967Z,1.60
2023-03-11T00:50:17.817Z,1.61
2023-03-11T00:52:46.007Z,1.58
2023-03-11T00:55:17.828Z,1.61
2023-03-11T00:57:45.865Z,1.55
2023-03-11T01:00:15.645Z,1.63
2023-03-11T01:02:43.756Z,1.69
2023-03-11T01:05:15.254Z,1.73
2023-03-11T01:07:43.091Z,1.74
2023-03-11T01:10:12.290Z,1.78
2023-03-11T01:12:41.945Z,1.75
2023-03-11T01:15:17.142Z,1.69
2023-03-11T01:17:44.945Z,1.65
2023-03-11T01:20:16.482Z,1.61
2023-03-11T01:22:44.576Z,1.53
2023-03-11T01:25:14.457Z,1.47
2023-03-11T01:27:43.545Z,1.47
2023-03-11T01:30:15.517Z,1.44
2023-03-11T01:32:43.602Z,1.39
2023-03-11T01:35:13.322Z,1.45
2023-03-11T01:37:41.128Z,1.44
2023-03-11T01:40:14.231Z,1.46
2023-03-11T01:42:45.880Z,1.52
2023-03-11T01:45:41.519Z,1.53
2023-03-11T01:48:10.151Z,1.50
2023-03-11T01:50:41.390Z,1.44
2023-03-11T01:53:10.515Z,1.34
2023-03-11T01:55:38.769Z,1.34
2023-03-11T01:58:12.133Z,1.31
2023-03-11T02:00:40.101Z,1.30
2023-03-11T02:03:12.196Z,1.21
2023-03-11T02:05:43.507Z,1.14
2023-03-11T02:08:11.237Z,1.09
2023-03-11T02:10:40.104Z,1.04
2023-03-11T02:13:10.641Z,1.03
2023-03-11T02:15:40.010Z,0.92
2023-03-11T02:18:09.146Z,0.92
2023-03-11T02:20:45.089Z,0.84
2023-03-11T02:23:14.972Z,0.85
2023-03-11T02:25:49.466Z,0.87
2023-03-11T02:28:21.612Z,0.87
2023-03-11T02:30:49.629Z,0.89
2023-03-11T02:33:17.903Z,0.90
2023-03-11T02:35:45.697Z,0.87
2023-03-11T02:38:14.050Z,0.92
2023-03-11T02:40:49.999Z,0.90
2023-03-11T02:43:23.912Z,0.91
2023-03-11T02:45:51.786Z,0.84
2023-03-11T02:48:20.430Z,0.85
2023-03-11T02:50:48.669Z,0.78
2023-03-11T02:53:16.774Z,0.78
2023-03-11T02:55:44.475Z,0.80
2023-03-11T02:58:12.150Z,0.77
2023-03-11T03:00:41.270Z,0.74
2023-03-11T03:03:10.512Z,0.68
2023-03-11T03:05:38.449Z,0.67
2023-03-11T03:08:06.490Z,0.63
2023-03-11T03:10:34.285Z,0.60
2023-03-11T03:13:01.942Z,0.62
2023-03-11T03:15:30.342Z,0.56
2023-03-11T03:17:59.507Z,0.51
2023-03-11T03:20:27.261Z,0.55
2023-03-11T03:22:55.708Z,0.51
2023-03-11T03:25:23.513Z,0.48
2023-03-11T03:27:51.512Z,0.52
2023-03-11T03:30:21.928Z,0.47
2023-03-11T03:32:49.666Z,0.43
2023-03-11T03:35:19.004Z,0.41
2023-03-11T03:37:46.816Z,0.42
2023-03-11T03:40:15.137Z,0.41
2023-03-11T03:42:42.883Z,0.38
2023-03-11T03:45:11.911Z,0.38
2023-03-11T03:47:39.670Z,0.34
2023-03-11T03:50:14.739Z,0.41
2023-03-11T03:52:43.943Z,0.39
2023-03-11T03:55:11.675Z,0.28
2023-03-11T03:57:41.132Z,0.22
2023-03-11T04:00:10.251Z,0.14
2023-03-11T04:02:38.012Z,0.19
2023-03-11T04:05:06.592Z,0.21
2023-03-11T04:07:35.701Z,0.19
2023-03-11T04:10:05.733Z,0.23
2023-03-11T04:12:33.492Z,0.19
2023-03-11T04:15:01.233Z,0.19
2023-03-11T04:17:28.970Z,0.13
2023-03-11T04:19:59.323Z,0.09
2023-03-11T04:22:27.030Z,0.07
2023-03-11T04:24:54.736Z,0.07
2023-03-11T04:27:23.790Z,-0.02
2023-03-11T04:29:51.513Z,-0.03
2023-03-11T04:32:19.290Z,-0.04
2023-03-11T04:34:47.046Z,-0.13
2023-03-11T04:37:14.820Z,-0.09
2023-03-11T04:39:42.509Z,-0.06
2023-03-11T04:42:10.192Z,-0.06
2023-03-11T04:44:39.260Z,-0.03
2023-03-11T04:47:07.144Z,-0.10
2023-03-11T04:49:34.864Z,-0.11
2023-03-11T04:52:02.581Z,-0.17
2023-03-11T04:54:30.337Z,-0.14
2023-03-11T04:57:06.308Z,-0.16
2023-03-11T04:59:34.143Z,-0.25
2023-03-11T05:02:03.165Z,-0.21
2023-03-11T05:04:31.100Z,-0.06
2023-03-11T05:06:58.774Z,0.05
2023-03-11T05:09:26.558Z,0.09
2023-03-11T05:11:54.350Z,0.15
2023-03-11T05:14:22.549Z,0.18
2023-03-11T05:16:50.261Z,0.25
2023-03-11T05:19:36.235Z,0.27
2023-03-11T05:22:05.473Z,0.32
2023-03-11T05:24:33.539Z,0.32
2023-03-11T05:27:01.948Z,0.36
2023-03-11T05:29:29.874Z,0.38
2023-03-11T05:31:57.579Z,0.38
2023-03-11T05:34:26.788Z,0.34
2023-03-11T05:36:54.528Z,0.33
2023-03-11T05:39:22.184Z,0.32
2023-03-11T05:41:49.892Z,0.33
2023-03-11T05:44:17.566Z,0.36
2023-03-11T05:46:45.404Z,0.33
2023-03-11T05:49:13.127Z,0.31
2023-03-11T05:51:42.156Z,0.28
2023-03-11T05:54:14.881Z,0.30
2023-03-11T05:56:42.896Z,0.34
2023-03-11T05:59:11.362Z,0.41
2023-03-11T06:01:39.438Z,0.41
2023-03-11T06:04:07.547Z,0.37
2023-03-11T06:06:36.400Z,0.32
2023-03-11T06:09:12.453Z,0.35
2023-03-11T06:11:40.147Z,0.32
2023-03-11T06:14:07.831Z,0.32
2023-03-11T06:16:35.795Z,0.33
2023-03-11T06:19:03.489Z,0.31
2023-03-11T06:21:31.272Z,0.31
2023-03-11T06:23:58.971Z,0.30
2023-03-11T06:26:28.470Z,0.31
2023-03-11T06:28:56.168Z,0.36
2023-03-11T06:31:26.212Z,0.34
2023-03-11T06:33:56.933Z,0.39
2023-03-11T06:36:28.279Z,0.29
2023-03-11T06:38:56.250Z,0.30
2023-03-11T06:41:23.942Z,0.32
2023-03-11T06:43:53.005Z,0.40
2023-03-11T06:46:22.455Z,0.49
2023-03-11T06:48:52.157Z,0.49
2023-03-11T06:51:21.102Z,0.53
2023-03-11T06:53:50.340Z,0.46
2023-03-11T06:56:18.146Z,0.57
2023-03-11T06:58:46.624Z,0.51
2023-03-11T07:01:18.792Z,0.61
2023-03-11T07:03:47.495Z,0.59
2023-03-11T07:06:16.451Z,0.49
2023-03-11T07:08:44.471Z,0.45
2023-03-11T07:11:15.590Z,0.33
2023-03-11T07:13:44.250Z,0.28
2023-03-11T07:16:15.641Z,0.31
2023-03-11T07:18:47.063Z,0.42
2023-03-11T07:21:16.750Z,0.62
2023-03-11T07:23:44.666Z,0.68
2023-03-11T07:26:14.248Z,0.80
2023-03-11T07:28:44.301Z,0.70
2023-03-11T07:31:14.290Z,0.67
2023-03-11T07:33:42.000Z,0.67
2023-03-11T07:36:15.384Z,0.52
2023-03-11T07:38:43.659Z,0.51
2023-03-11T07:41:12.266Z,0.57
2023-03-11T07:43:41.010Z,0.56
2023-03-11T07:46:10.816Z,0.71
2023-03-11T07:48:42.128Z,0.84
2023-03-11T07:51:13.321Z,0.97
2023-03-11T07:53:41.580Z,1.21
2023-03-11T07:56:20.002Z,1.32
2023-03-11T07:58:47.852Z,1.33
2023-03-11T08:01:17.274Z,1.49
2023-03-11T08:03:46.598Z,1.29
2023-03-11T08:06:16.253Z,1.36
2023-03-11T08:08:44.171Z,1.40
2023-03-11T08:11:13.584Z,1.21
2023-03-11T08:13:41.974Z,1.05
2023-03-11T08:16:11.491Z,1.37
2023-03-11T08:18:39.320Z,1.42
2023-03-11T08:21:08.299Z,1.78
2023-03-11T08:23:40.033Z,1.98
2023-03-11T08:26:09.071Z,1.84
2023-03-11T08:28:37.746Z,1.84
2023-03-11T08:31:13.669Z,1.83
2023-03-11T08:33:42.628Z,1.80
2023-03-11T08:36:10.804Z,1.80
2023-03-11T08:38:40.131Z,2.01
2023-03-11T08:41:07.877Z,1.91
2023-03-11T08:43:35.774Z,2.13
2023-03-11T08:46:06.653Z,2.35
2023-03-11T08:48:35.075Z,2.23
2023-03-11T08:51:03.024Z,2.09
2023-03-11T08:53:30.749Z,2.09
2023-03-11T08:56:02.707Z,1.97
2023-03-11T08:58:30.371Z,1.95
2023-03-11T09:01:00.169Z,2.04
2023-03-11T09:03:29.465Z,2.16
2023-03-11T09:06:01.809Z,2.01
2023-03-11T09:08:29.688Z,2.02
2023-03-11T09:10:58.723Z,2.07
2023-03-11T09:13:26.399Z,2.07
2023-03-11T09:15:54.643Z,2.22
2023-03-11T09:18:22.442Z,2.40
2023-03-11T09:20:50.219Z,2.61
2023-03-11T09:23:18.955Z,2.35
2023-03-11T09:25:46.624Z,2.27
2023-03-11T09:28:15.676Z,2.25
2023-03-11T09:30:43.378Z,2.72
2023-03-11T09:33:11.119Z,2.73
2023-03-11T09:35:39.701Z,2.76
2023-03-11T09:38:07.569Z,2.85
2023-03-11T09:40:50.161Z,2.97
2023-03-11T09:43:32.007Z,2.93
2023-03-11T09:46:12.388Z,3.08
2023-03-11T09:48:45.590Z,3.06
2023-03-11T09:51:21.613Z,3.57
2023-03-11T09:54:00.712Z,3.55
2023-03-11T09:56:28.740Z,3.35
2023-03-11T09:59:03.098Z,3.86
2023-03-11T10:01:34.496Z,3.95
2023-03-11T10:04:11.372Z,4.05
2023-03-11T10:06:40.724Z,4.19
2023-03-11T10:09:26.206Z,4.08
2023-03-11T10:12:14.505Z,4.14
2023-03-11T10:15:06.893Z,3.94
2023-03-11T10:18:04.595Z,4.74
2023-03-11T10:20:42.509Z,5.56
2023-03-11T10:23:19.896Z,5.51
2023-03-11T10:25:58.039Z,5.96
2023-03-11T10:28:32.302Z,6.05
2023-03-11T10:31:08.118Z,6.21
2023-03-11T10:33:42.129Z,5.90
2023-03-11T10:36:15.359Z,5.48
2023-03-11T10:38:47.000Z,4.74
2023-03-11T10:41:22.715Z,4.95
2023-03-11T10:43:53.805Z,4.20
2023-03-11T10:46:27.248Z,4.23
2023-03-11T10:48:55.287Z,5.04
2023-03-11T10:51:23.823Z,5.21
2023-03-11T10:53:54.372Z,5.03
2023-03-11T10:56:27.798Z,5.58
2023-03-11T10:58:55.856Z,5.78
2023-03-11T11:01:26.067Z,5.80
2023-03-11T11:03:56.434Z,5.87
2023-03-11T11:06:27.465Z,6.10
2023-03-11T11:09:22.926Z,5.52
2023-03-11T11:12:06.580Z,5.78
2023-03-11T11:14:47.830Z,5.86
2023-03-11T11:17:21.628Z,6.06
2023-03-11T11:19:50.844Z,6.60
2023-03-11T11:22:22.064Z,7.17
2023-03-11T11:24:52.280Z,6.61
2023-03-11T11:27:22.584Z,7.13
2023-03-11T11:30:14.734Z,6.66
2023-03-11T11:32:44.050Z,6.90
2023-03-11T11:35:13.773Z,6.91
2023-03-11T11:37:44.573Z,6.81
2023-03-11T11:40:24.673Z,7.17
2023-03-11T11:42:56.686Z,8.37
2023-03-11T11:45:31.881Z,7.88
2023-03-11T11:48:05.831Z,7.75
2023-03-11T11:50:36.504Z,7.03
2023-03-11T11:53:14.675Z,6.62
2023-03-11T11:55:48.365Z,6.69
2023-03-11T11:58:16.345Z,5.96
2023-03-11T12:00:57.986Z,6.04
2023-03-11T12:03:45.650Z,6.34
2023-03-11T12:06:26.207Z,6.20
2023-03-11T12:09:05.562Z,6.84
2023-03-11T12:11:41.995Z,6.64
2023-03-11T12:14:18.560Z,6.27
2023-03-11T12:16:53.576Z,6.57
2023-03-11T12:19:34.795Z,6.26
2023-03-11T12:22:46.854Z,6.50
2023-03-11T12:25:24.131Z,6.56
2023-03-11T12:27:58.930Z,6.88
2023-03-11T12:30:30.445Z,6.79
2023-03-11T12:33:02.249Z,7.19
2023-03-11T12:35:33.892Z,7.72
2023-03-11T12:38:08.832Z,7.32
2023-03-11T12:41:03.564Z,7.19
2023-03-11T12:44:10.829Z,7.11
2023-03-11T12:47:25.140Z,6.78
2023-03-11T12:49:55.248Z,7.30
2023-03-11T12:52:29.369Z,7.05
2023-03-11T12:55:38.729Z,7.17
2023-03-11T12:58:34.627Z,7.40
2023-03-11T13:01:18.539Z,7.46
2023-03-11T13:03:59.013Z,7.67
2023-03-11T13:06:57.353Z,7.06
2023-03-11T13:09:26.691Z,6.64
2023-03-11T13:11:54.425Z,6.99
2023-03-11T13:14:30.260Z,6.78
2023-03-11T13:17:18.588Z,6.68
2023-03-11T13:19:52.132Z,7.26
2023-03-11T13:22:42.623Z,7.34
2023-03-11T13:25:28.067Z,7.04
2023-03-11T13:28:04.517Z,6.72
2023-03-11T13:30:39.922Z,6.91
2023-03-11T13:33:36.699Z,6.72
2023-03-11T13:36:19.445Z,6.64
2023-03-11T13:39:16.369Z,6.92
2023-03-11T13:41:46.135Z,6.84
2023-03-11T13:44:28.654Z,6.81
2023-03-11T13:47:02.326Z,6.76
2023-03-11T13:49:38.114Z,6.79
2023-03-11T13:52:10.573Z,6.55
2023-03-11T13:54:46.461Z,6.63
2023-03-11T13:57:28.903Z,7.40
2023-03-11T13:59:57.910Z,9.05
2023-03-11T14:02:27.373Z,9.97
2023-03-11T14:04:58.943Z,11.42
2023-03-11T14:07:29.572Z,12.03
2023-03-11T14:10:33.564Z,11.21
2023-03-11T14:13:19.626Z,9.48
2023-03-11T14:15:52.336Z,11.34
2023-03-11T14:18:40.139Z,11.99
2023-03-11T14:21:14.758Z,12.72
2023-03-11T14:23:45.179Z,12.92
2023-03-11T14:26:18.558Z,10.61
2023-03-11T14:28:50.758Z,9.67
2023-03-11T14:31:30.210Z,9.17
2023-03-11T14:34:04.190Z,8.32
2023-03-11T14:36:40.127Z,8.87
2023-03-11T14:39:22.749Z,8.99
2023-03-11T14:41:51.727Z,8.12
2023-03-11T14:44:21.185Z,6.78
2023-03-11T14:46:50.624Z,6.68
2023-03-11T14:49:23.297Z,7.13
2023-03-11T14:51:55.991Z,7.20
2023-03-11T14:54:27.187Z,7.43
2023-03-11T14:57:00.975Z,6.78
2023-03-11T14:59:33.319Z,6.60
2023-03-11T15:02:21.737Z,6.58
2023-03-11T15:04:49.911Z,6.73
2023-03-11T15:07:21.567Z,5.96
2023-03-11T15:09:49.401Z,5.84
2023-03-11T15:12:32.608Z,5.37
2023-03-11T15:15:01.705Z,5.67
2023-03-11T15:17:41.363Z,6.16
2023-03-11T15:20:25.685Z,5.85
2023-03-11T15:22:58.168Z,5.61
2023-03-11T15:25:25.877Z,6.09
2023-03-11T15:27:53.614Z,6.14
2023-03-11T15:30:25.808Z,5.88
2023-03-11T15:32:54.132Z,5.41
2023-03-11T15:35:24.137Z,5.11
2023-03-11T15:38:11.904Z,4.64
2023-03-11T15:40:45.618Z,4.59
2023-03-11T15:43:24.929Z,4.62
2023-03-11T15:45:55.537Z,4.69
2023-03-11T15:48:23.944Z,4.76
2023-03-11T15:50:54.737Z,4.85
2023-03-11T15:53:23.421Z,4.80
2023-03-11T15:55:52.559Z,4.88
2023-03-11T15:58:21.770Z,4.93
2023-03-11T16:00:51.768Z,4.77
2023-03-11T16:03:21.128Z,4.74
2023-03-11T16:05:49.197Z,4.85
2023-03-11T16:08:17.555Z,4.93
2023-03-11T16:10:45.398Z,5.00
2023-03-11T16:13:14.186Z,4.83
2023-03-11T16:15:42.707Z,4.77
2023-03-11T16:18:11.076Z,4.54
2023-03-11T16:20:42.942Z,4.28
2023-03-11T16:23:16.890Z,4.24
2023-03-11T16:25:45.078Z,4.04
2023-03-11T16:28:15.365Z,3.95
2023-03-11T16:30:43.056Z,3.94
2023-03-11T16:33:11.257Z,3.81
2023-03-11T16:35:40.404Z,3.80
2023-03-11T16:38:08.467Z,3.64
2023-03-11T16:40:36.809Z,3.62
2023-03-11T16:43:06.712Z,3.53
2023-03-11T16:45:34.417Z,3.51
2023-03-11T16:48:02.203Z,3.42
2023-03-11T16:50:30.023Z,3.33
2023-03-11T16:52:59.744Z,3.27
2023-03-11T16:55:29.326Z,3.21
2023-03-11T16:57:59.120Z,3.21
2023-03-11T17:00:27.258Z,3.10
2023-03-11T17:02:54.951Z,3.07
2023-03-11T17:05:22.867Z,3.08
2023-03-11T17:07:54.872Z,2.99
2023-03-11T17:10:24.810Z,3.01
2023-03-11T17:12:52.589Z,2.92
2023-03-11T17:15:20.757Z,2.79
2023-03-11T17:17:48.601Z,2.78
2023-03-11T17:20:16.297Z,2.76
2023-03-11T17:22:43.952Z,2.82
2023-03-11T17:25:11.644Z,2.73
2023-03-11T17:27:40.732Z,2.70
2023-03-11T17:30:09.832Z,2.67
2023-03-11T17:32:37.598Z,2.58
2023-03-11T17:35:06.265Z,2.64
2023-03-11T17:37:34.236Z,2.61
2023-03-11T17:40:01.954Z,2.64
2023-03-11T17:42:29.743Z,2.60
2023-03-11T17:44:59.184Z,2.58
2023-03-11T17:47:27.061Z,2.56
2023-03-11T17:49:55.018Z,2.54
2023-03-11T17:52:22.738Z,2.51
2023-03-11T17:54:51.847Z,2.56
2023-03-11T17:57:19.493Z,2.51
2023-03-11T17:59:50.854Z,2.50
2023-03-11T18:02:20.419Z,2.42
2023-03-11T18:04:52.095Z,2.43
2023-03-11T18:07:22.965Z,2.35
2023-03-11T18:09:52.232Z,2.33
2023-03-11T18:12:20.694Z,2.28
2023-03-11T18:14:48.425Z,2.24
2023-03-11T18:17:18.328Z,2.33
2023-03-11T18:19:49.728Z,2.29
2023-03-11T18:22:17.405Z,2.21
2023-03-11T18:24:47.859Z,2.25
2023-03-11T18:27:15.468Z,2.20
2023-03-11T18:29:43.867Z,2.24
2023-03-11T18:32:14.088Z,2.19
2023-03-11T18:34:41.851Z,2.19
2023-03-11T18:37:12.185Z,2.08
2023-03-11T18:39:40.371Z,1.99
2023-03-11T18:42:08.098Z,1.93
2023-03-11T18:44:36.982Z,1.84
2023-03-11T18:47:04.782Z,1.75
2023-03-11T18:49:32.549Z,1.60
2023-03-11T18:52:00.329Z,1.50
2023-03-11T18:54:30.046Z,1.33
2023-03-11T18:56:57.708Z,1.19
2023-03-11T18:59:27.468Z,1.07
2023-03-11T19:01:55.279Z,0.94
2023-03-11T19:04:23.045Z,0.75
2023-03-11T19:06:51.103Z,0.64
2023-03-11T19:09:19.342Z,0.60
2023-03-11T19:11:49.427Z,0.58
2023-03-11T19:14:19.627Z,0.55
2023-03-11T19:16:47.331Z,0.61
2023-03-11T19:19:15.054Z,0.61
2023-03-11T19:21:43.279Z,0.53
2023-03-11T19:24:11.367Z,0.45
2023-03-11T19:26:45.491Z,0.39
2023-03-11T19:29:19.389Z,0.35
2023-03-11T19:31:48.362Z,0.23
2023-03-11T19:34:16.104Z,0.29
2023-03-11T19:36:43.839Z,0.23
2023-03-11T19:39:11.622Z,0.21
2023-03-11T19:41:39.378Z,0.25
2023-03-11T19:44:07.085Z,0.25
2023-03-11T19:46:36.433Z,0.21
2023-03-11T19:49:04.835Z,0.31
2023-03-11T19:51:48.569Z,0.22
2023-03-11T19:54:17.206Z,0.18
2023-03-11T19:56:45.061Z,0.15
2023-03-11T19:59:12.777Z,0.13
2023-03-11T20:01:42.816Z,0.08
2023-03-11T20:04:11.112Z,0.00
2023-03-11T20:06:38.926Z,-0.09
2023-03-11T20:09:07.010Z,-0.13
2023-03-11T20:11:34.775Z,-0.22
2023-03-11T20:14:02.418Z,-0.27
2023-03-11T20:16:30.163Z,-0.32
2023-03-11T20:18:59.514Z,-0.40
2023-03-11T20:21:27.228Z,-0.43
2023-03-11T20:23:57.136Z,-0.53
2023-03-11T20:26:25.395Z,-0.59
2023-03-11T20:28:56.021Z,-0.67
2023-03-11T20:31:25.993Z,-0.78
2023-03-11T20:33:54.639Z,-0.82
2023-03-11T20:36:25.659Z,-0.88
2023-03-11T20:38:55.343Z,-0.94
2023-03-11T20:41:24.596Z,-1.03
2023-03-11T20:43:52.668Z,-1.14
2023-03-11T20:46:20.854Z,-1.22
2023-03-11T20:48:48.799Z,-1.36
2023-03-11T20:51:20.749Z,-1.44
2023-03-11T20:53:50.127Z,-1.54
2023-03-11T20:56:20.059Z,-1.57
2023-03-11T20:58:50.856Z,-1.62
2023-03-11T21:01:21.033Z,-1.66
2023-03-11T21:03:49.793Z,-1.71
2023-03-11T21:06:19.161Z,-1.65
2023-03-11T21:08:47.246Z,-1.62
2023-03-11T21:11:17.643Z,-1.59
2023-03-11T21:13:45.600Z,-1.64
2023-03-11T21:16:14.614Z,-1.59
2023-03-11T21:18:43.145Z,-1.62
2023-03-11T21:21:11.762Z,-1.57
2023-03-11T21:23:40.710Z,-1.59
2023-03-11T21:26:09.481Z,-1.51
2023-03-11T21:28:40.042Z,-1.53
2023-03-11T21:31:10.832Z,-1.49
2023-03-11T21:33:39.789Z,-1.57
2023-03-11T21:36:09.628Z,-1.60
2023-03-11T21:38:37.886Z,-1.71
2023-03-11T21:41:08.155Z,-1.67
2023-03-11T21:43:36.797Z,-1.72
2023-03-11T21:46:07.439Z,-1.67
2023-03-11T21:48:35.440Z,-1.69
2023-03-11T21:51:03.733Z,-1.70
2023-03-11T21:53:32.222Z,-1.66
2023-03-11T21:56:00.104Z,-1.70
2023-03-11T21:58:28.066Z,-1.76
2023-03-11T22:00:56.051Z,-1.76
2023-03-11T22:03:25.282Z,-1.86
2023-03-11T22:05:58.428Z,-1.88
2023-03-11T22:08:26.678Z,-1.94
2023-03-11T22:10:54.906Z,-1.98
2023-03-11T22:13:23.609Z,-2.02
2023-03-11T22:15:51.938Z,-2.00
2023-03-11T22:18:20.159Z,-1.99
2023-03-11T22:20:49.312Z,-2.01
2023-03-11T22:23:17.126Z,-2.04
2023-03-11T22:25:45.024Z,-2.01
2023-03-11T22:28:13.042Z,-2.05
2023-03-11T22:30:40.798Z,-2.09
2023-03-11T22:33:08.571Z,-2.08
2023-03-11T22:35:36.488Z,-2.10
2023-03-11T22:38:06.779Z,-2.17
2023-03-11T22:40:35.030Z,-2.19
2023-03-11T22:43:02.775Z,-2.27
2023-03-11T22:45:30.463Z,-2.33
2023-03-11T22:47:58.133Z,-2.42
2023-03-11T22:50:25.948Z,-2.48
2023-03-11T22:52:53.651Z,-2.48
2023-03-11T23:00:19.506Z,-2.42
2023-03-11T23:02:48.970Z,-2.38
2023-03-11T23:05:17.168Z,-2.34
2023-03-11T23:07:45.529Z,-2.38
2023-03-11T23:10:15.167Z,-2.44
2023-03-11T23:12:43.337Z,-2.48
2023-03-11T23:15:14.318Z,-2.50
2023-03-11T23:17:43.408Z,-2.42
2023-03-11T23:20:14.629Z,-2.31
2023-03-11T23:22:43.575Z,-2.19
2023-03-11T23:25:14.434Z,-2.06
2023-03-11T23:27:42.952Z,-2.03
2023-03-11T23:30:12.696Z,-2.00
2023-03-11T23:32:40.434Z,-2.01
2023-03-11T23:35:10.403Z,-2.07
2023-03-11T23:37:38.222Z,-2.01
2023-03-11T23:40:07.076Z,-2.03
2023-03-11T23:42:36.080Z,-2.09
2023-03-11T23:45:04.057Z,-2.12
2023-03-11T23:47:31.800Z,-2.23
2023-03-11T23:49:59.488Z,-2.34
2023-03-11T23:52:28.643Z,-2.39
2023-03-11T23:54:56.643Z,-2.40
2023-03-11T23:57:24.466Z,-2.53
2023-03-11T23:59:52.159Z,-2.56
